Time;durP1;ratioP1;P1;durP2;ratioP2;P2;SDS_P1;SDS_P2;PMS_P1;PMS_P2;Temp;Humidity;BMP_temperature;BMP_pressure;BME280_temperature;BME280_humidity;BME280_pressure;Samples;Min_cycle;Max_cycle;Signal;HPM_P1;HPM_P2
2021/01/18 00:00:39;;;;;;;11.10;1.92;;;;;;;;;;4990448;28;20042;-61
2021/01/18 00:03:06;;;;;;;8.10;1.88;;;;;;;;;;4982847;28;20042;-61
2021/01/18 00:05:32;;;;;;;7.63;2.08;;;;;;;;;;4966484;28;20151;-61
2021/01/18 00:07:58;;;;;;;8.75;1.85;;;;;;;;;;4973901;28;20055;-61
2021/01/18 00:10:41;;;;;;;7.53;2.13;;;;;;;;;;4952182;28;20039;-61
2021/01/18 00:13:07;;;;;;;9.20;1.80;;;;;;;;;;4957973;28;20057;-61
2021/01/18 00:15:33;;;;;;;19.60;2.10;;;;;;;;;;4970679;28;20039;-61
2021/01/18 00:18:00;;;;;;;12.73;2.05;;;;;;;;;;4967370;28;20038;-62
2021/01/18 00:23:29;;;;;;;11.13;2.20;;;;;;;;;;4982462;28;20041;-61
2021/01/18 00:25:55;;;;;;;14.07;2.35;;;;;;;;;;4975685;28;20030;-61
2021/01/18 00:28:24;;;;;;;18.98;2.70;;;;;;;;;;4967862;28;20078;-61
2021/01/18 00:30:50;;;;;;;7.95;1.98;;;;;;;;;;4970049;28;20126;-61
2021/01/18 00:33:17;;;;;;;7.78;2.38;;;;;;;;;;4965013;28;20043;-61
2021/01/18 00:35:43;;;;;;;19.80;2.58;;;;;;;;;;4969864;28;20092;-61
2021/01/18 00:38:09;;;;;;;8.18;2.38;;;;;;;;;;4965268;28;20051;-61
2021/01/18 00:40:43;;;;;;;13.63;2.50;;;;;;;;;;4969510;28;20045;-62
2021/01/18 00:43:09;;;;;;;8.18;2.75;;;;;;;;;;4969649;28;20035;-60
2021/01/18 00:45:35;;;;;;;20.83;2.65;;;;;;;;;;4983954;28;20054;-61
2021/01/18 00:48:01;;;;;;;15.63;2.60;;;;;;;;;;4969830;28;20039;-61
2021/01/18 00:50:44;;;;;;;13.18;2.78;;;;;;;;;;4964235;28;20043;-60
2021/01/18 00:53:10;;;;;;;8.55;2.60;;;;;;;;;;4970200;28;20031;-61
2021/01/18 00:55:36;;;;;;;6.88;2.22;;;;;;;;;;4964928;28;20112;-61
2021/01/18 00:58:02;;;;;;;9.65;2.60;;;;;;;;;;4970071;28;20023;-62
2021/01/18 01:00:29;;;;;;;9.25;2.45;;;;;;;;;;4965588;28;20035;-61
2021/01/18 01:02:56;;;;;;;8.25;2.00;;;;;;;;;;4968142;28;20054;-62
2021/01/18 01:05:23;;;;;;;11.98;2.58;;;;;;;;;;4992123;28;20045;-60
2021/01/18 01:07:51;;;;;;;12.70;2.95;;;;;;;;;;4987700;28;20034;-61
2021/01/18 01:10:19;;;;;;;19.77;2.67;;;;;;;;;;4975063;28;20058;-62
2021/01/18 01:12:45;;;;;;;9.77;2.42;;;;;;;;;;4968968;28;20043;-61
2021/01/18 01:15:12;;;;;;;6.63;2.05;;;;;;;;;;4965460;28;20121;-62
2021/01/18 01:17:42;;;;;;;10.02;2.20;;;;;;;;;;4969228;28;20058;-62
2021/01/18 01:20:09;;;;;;;6.53;2.53;;;;;;;;;;4965129;28;20049;-61
2021/01/18 01:22:35;;;;;;;8.43;2.22;;;;;;;;;;4969128;28;20075;-61
2021/01/18 01:25:02;;;;;;;10.02;2.72;;;;;;;;;;4965394;28;20055;-61
2021/01/18 01:27:28;;;;;;;9.45;2.78;;;;;;;;;;4986418;28;20041;-61
2021/01/18 01:29:57;;;;;;;15.10;3.63;;;;;;;;;;4970484;28;20046;-62
2021/01/18 01:32:23;;;;;;;10.88;3.55;;;;;;;;;;4966179;28;20039;-62
2021/01/18 01:34:49;;;;;;;15.48;3.15;;;;;;;;;;4969406;28;20034;-62
2021/01/18 01:37:15;;;;;;;13.25;2.67;;;;;;;;;;4965854;28;20110;-62
2021/01/18 01:39:56;;;;;;;19.38;2.58;;;;;;;;;;4969453;28;20117;-61
2021/01/18 01:42:23;;;;;;;12.65;3.05;;;;;;;;;;4965414;28;20031;-61
2021/01/18 01:44:50;;;;;;;10.75;2.80;;;;;;;;;;4969836;28;20054;-61
2021/01/18 01:47:21;;;;;;;9.95;2.53;;;;;;;;;;4982747;28;20045;-61
2021/01/18 01:50:03;;;;;;;13.38;2.53;;;;;;;;;;4970644;28;20033;-61
2021/01/18 01:52:29;;;;;;;7.75;2.33;;;;;;;;;;4988442;28;20111;-61
2021/01/18 01:54:56;;;;;;;9.45;2.22;;;;;;;;;;4986801;28;20049;-62
2021/01/18 01:57:24;;;;;;;9.82;2.63;;;;;;;;;;4962742;28;20047;-62
2021/01/18 01:59:56;;;;;;;14.98;2.58;;;;;;;;;;4948730;28;20035;-61
2021/01/18 02:02:22;;;;;;;13.05;2.80;;;;;;;;;;4955912;28;20042;-62
2021/01/18 02:04:48;;;;;;;7.60;1.95;;;;;;;;;;4973963;28;20038;-62
2021/01/18 02:07:20;;;;;;;15.88;2.45;;;;;;;;;;4984496;28;20050;-62
2021/01/18 02:09:56;;;;;;;7.80;2.30;;;;;;;;;;4987856;28;20049;-62
2021/01/18 02:12:25;;;;;;;17.85;2.15;;;;;;;;;;4984472;28;20049;-61
2021/01/18 02:15:02;;;;;;;12.70;2.10;;;;;;;;;;4987463;28;20046;-61
2021/01/18 02:17:35;;;;;;;18.73;2.08;;;;;;;;;;4984321;28;20096;-61
2021/01/18 02:20:27;;;;;;;12.48;2.55;;;;;;;;;;4987664;28;20027;-61
2021/01/18 02:23:02;;;;;;;10.00;2.22;;;;;;;;;;4911085;28;20094;-61
2021/01/18 02:25:36;;;;;;;12.23;2.20;;;;;;;;;;4986749;28;20022;-61
2021/01/18 02:28:10;;;;;;;11.13;2.92;;;;;;;;;;4984733;28;20057;-61
2021/01/18 02:31:07;;;;;;;14.82;3.47;;;;;;;;;;4986304;28;20046;-61
2021/01/18 02:33:54;;;;;;;12.80;3.05;;;;;;;;;;4984142;28;20150;-61
2021/01/18 02:36:26;;;;;;;13.75;2.88;;;;;;;;;;4971339;28;20066;-61
2021/01/18 02:38:58;;;;;;;12.57;2.30;;;;;;;;;;4984589;28;20053;-61
2021/01/18 02:41:35;;;;;;;9.63;2.55;;;;;;;;;;4986952;28;20044;-60
2021/01/18 02:44:04;;;;;;;11.13;2.35;;;;;;;;;;4984681;28;20120;-60
2021/01/18 02:46:30;;;;;;;9.93;2.60;;;;;;;;;;4987465;28;20073;-61
2021/01/18 02:48:57;;;;;;;9.95;2.47;;;;;;;;;;4984348;28;20034;-60
2021/01/18 02:51:27;;;;;;;11.70;2.53;;;;;;;;;;4987240;28;20133;-62
2021/01/18 02:53:54;;;;;;;10.82;2.47;;;;;;;;;;4982290;28;20034;-62
2021/01/18 02:56:24;;;;;;;9.45;2.70;;;;;;;;;;4989241;28;20106;-61
2021/01/18 02:58:51;;;;;;;11.23;2.55;;;;;;;;;;4986593;28;20038;-60
2021/01/18 03:01:25;;;;;;;7.05;2.33;;;;;;;;;;4988837;28;20046;-61
2021/01/18 03:03:56;;;;;;;15.98;2.67;;;;;;;;;;5001724;28;20142;-62
2021/01/18 03:06:27;;;;;;;13.98;3.03;;;;;;;;;;4989930;28;20038;-61
2021/01/18 03:08:58;;;;;;;15.00;2.65;;;;;;;;;;4987485;28;20046;-61
2021/01/18 03:11:36;;;;;;;19.73;3.00;;;;;;;;;;4950844;28;20121;-61
2021/01/18 03:14:03;;;;;;;14.88;3.20;;;;;;;;;;4961978;28;20070;-61
2021/01/18 03:16:31;;;;;;;13.75;3.05;;;;;;;;;;5005607;28;20145;-61
2021/01/18 03:18:59;;;;;;;8.93;3.60;;;;;;;;;;5013398;28;20111;-61
2021/01/18 03:21:25;;;;;;;9.63;3.35;;;;;;;;;;4983507;28;20031;-61
2021/01/18 03:23:51;;;;;;;12.57;3.22;;;;;;;;;;4987337;28;20037;-62
2021/01/18 03:26:22;;;;;;;16.48;3.72;;;;;;;;;;4967937;28;20051;-62
2021/01/18 03:28:48;;;;;;;12.75;2.78;;;;;;;;;;4971046;28;20043;-60
2021/01/18 03:31:32;;;;;;;18.42;4.57;;;;;;;;;;4980318;28;20030;-62
2021/01/18 03:33:58;;;;;;;12.07;3.03;;;;;;;;;;4971533;28;20075;-61
2021/01/18 03:36:24;;;;;;;15.55;3.53;;;;;;;;;;4980544;28;20185;-61
2021/01/18 03:38:50;;;;;;;7.82;3.10;;;;;;;;;;4989048;28;20054;-61
2021/01/18 03:41:22;;;;;;;11.40;3.22;;;;;;;;;;4977492;28;20027;-61
2021/01/18 03:43:48;;;;;;;9.35;3.50;;;;;;;;;;4969890;28;20050;-60
2021/01/18 03:46:14;;;;;;;20.23;3.03;;;;;;;;;;4996265;28;20055;-61
2021/01/18 03:48:40;;;;;;;11.68;3.33;;;;;;;;;;4970348;28;20117;-61
2021/01/18 03:51:07;;;;;;;12.15;2.58;;;;;;;;;;4980851;28;20049;-61
2021/01/18 03:53:33;;;;;;;11.52;3.15;;;;;;;;;;4970265;28;20041;-61
2021/01/18 03:55:59;;;;;;;12.68;3.30;;;;;;;;;;4966268;28;20063;-61
2021/01/18 03:58:26;;;;;;;13.75;3.33;;;;;;;;;;4971583;28;20023;-61
2021/01/18 04:00:53;;;;;;;10.82;2.90;;;;;;;;;;4968118;28;20034;-60
2021/01/18 04:03:19;;;;;;;10.27;3.28;;;;;;;;;;4968398;28;20039;-61
2021/01/18 04:05:46;;;;;;;13.25;3.28;;;;;;;;;;4983670;28;20054;-61
2021/01/18 04:08:12;;;;;;;14.82;3.70;;;;;;;;;;5003182;28;20042;-61
2021/01/18 04:10:38;;;;;;;8.10;3.08;;;;;;;;;;4989998;28;20038;-62
2021/01/18 04:13:04;;;;;;;17.60;3.20;;;;;;;;;;4985751;28;20042;-61
2021/01/18 04:15:31;;;;;;;10.55;3.35;;;;;;;;;;4988530;28;20042;-61
2021/01/18 04:17:57;;;;;;;15.35;3.25;;;;;;;;;;4985976;28;20070;-61
2021/01/18 04:20:25;;;;;;;15.27;3.88;;;;;;;;;;4987677;28;20038;-61
2021/01/18 04:22:52;;;;;;;12.75;4.03;;;;;;;;;;4985794;28;20073;-60
2021/01/18 04:25:19;;;;;;;16.00;3.28;;;;;;;;;;4989566;28;20034;-61
2021/01/18 04:27:46;;;;;;;13.27;2.92;;;;;;;;;;4984633;28;20034;-60
2021/01/18 04:30:13;;;;;;;16.77;3.33;;;;;;;;;;4987747;28;20042;-61
2021/01/18 04:32:40;;;;;;;13.13;3.35;;;;;;;;;;5001300;28;20038;-61
2021/01/18 04:35:07;;;;;;;12.40;3.70;;;;;;;;;;4988667;28;20038;-61
2021/01/18 04:37:33;;;;;;;8.98;3.03;;;;;;;;;;5001490;28;20041;-60
2021/01/18 04:40:00;;;;;;;9.13;3.38;;;;;;;;;;4989222;28;20053;-61
2021/01/18 04:42:26;;;;;;;18.80;3.67;;;;;;;;;;4993218;28;20027;-62
2021/01/18 04:44:54;;;;;;;14.95;3.35;;;;;;;;;;5003458;28;20123;-61
2021/01/18 04:47:21;;;;;;;11.50;3.92;;;;;;;;;;4988820;28;20045;-61
2021/01/18 04:50:00;;;;;;;11.50;3.65;;;;;;;;;;4982793;28;20042;-61
2021/01/18 04:52:26;;;;;;;;;;;;;;;;;;4980032;28;20038;-61
2021/01/18 04:54:54;;;;;;;13.93;3.25;;;;;;;;;;4999453;28;19989;-61
2021/01/18 04:57:25;;;;;;;13.43;4.13;;;;;;;;;;5004295;28;20050;-60
2021/01/18 04:59:55;;;;;;;10.02;3.22;;;;;;;;;;4998098;28;20042;-61
2021/01/18 05:02:23;;;;;;;8.75;3.00;;;;;;;;;;4987099;28;20042;-62
2021/01/18 05:04:51;;;;;;;12.70;3.80;;;;;;;;;;4985028;28;20039;-61
2021/01/18 05:07:47;;;;;;;12.85;3.78;;;;;;;;;;5001030;28;20055;-61
2021/01/18 05:10:27;;;;;;;8.80;3.55;;;;;;;;;;4981014;28;20035;-60
2021/01/18 05:12:56;;;;;;;12.23;3.58;;;;;;;;;;4984451;28;20034;-61
2021/01/18 05:15:23;;;;;;;15.32;3.63;;;;;;;;;;4982485;28;20041;-61
2021/01/18 05:17:49;;;;;;;13.18;4.20;;;;;;;;;;4985010;28;20078;-60
2021/01/18 05:20:16;;;;;;;17.10;3.88;;;;;;;;;;4982868;28;20042;-61
2021/01/18 05:22:43;;;;;;;14.35;4.10;;;;;;;;;;4985233;28;20043;-61
2021/01/18 05:25:10;;;;;;;16.23;4.07;;;;;;;;;;4998961;28;20053;-60
2021/01/18 05:27:56;;;;;;;21.27;4.32;;;;;;;;;;4985360;28;20043;-61
2021/01/18 05:30:23;;;;;;;16.75;4.50;;;;;;;;;;4980770;28;20093;-60
2021/01/18 05:32:59;;;;;;;13.10;3.38;;;;;;;;;;4987011;28;20042;-60
2021/01/18 05:35:26;;;;;;;14.30;3.92;;;;;;;;;;4998076;28;20039;-60
2021/01/18 05:37:56;;;;;;;14.45;4.32;;;;;;;;;;4986092;28;20059;-61
2021/01/18 05:40:38;;;;;;;9.85;3.63;;;;;;;;;;4980643;28;20523;-61
2021/01/18 05:43:04;;;;;;;11.27;4.30;;;;;;;;;;4986140;28;20038;-61
2021/01/18 05:45:32;;;;;;;20.35;4.00;;;;;;;;;;4980378;28;20038;-61
2021/01/18 05:47:59;;;;;;;16.95;4.65;;;;;;;;;;4985383;28;20035;-61
2021/01/18 05:50:27;;;;;;;16.83;4.03;;;;;;;;;;4997660;28;20075;-61
2021/01/18 05:52:52;;;;;;;15.30;4.17;;;;;;;;;;4984994;28;20042;-62
2021/01/18 05:55:20;;;;;;;16.52;4.57;;;;;;;;;;4999513;28;20027;-61
2021/01/18 05:57:47;;;;;;;15.52;3.92;;;;;;;;;;4984387;28;20062;-61
2021/01/18 06:00:23;;;;;;;12.60;3.65;;;;;;;;;;5000015;28;20046;-60
2021/01/18 06:02:50;;;;;;;12.32;3.80;;;;;;;;;;4980479;28;20027;-61
2021/01/18 06:05:16;;;;;;;13.32;4.72;;;;;;;;;;4987175;28;20040;-60
2021/01/18 06:07:42;;;;;;;20.20;4.03;;;;;;;;;;5000720;28;20188;-60
2021/01/18 06:10:44;;;;;;;12.85;4.30;;;;;;;;;;5010474;28;20034;-61
2021/01/18 06:13:17;;;;;;;21.35;4.18;;;;;;;;;;4982052;28;20050;-60
2021/01/18 06:15:44;;;;;;;19.13;4.53;;;;;;;;;;4967852;28;20035;-60
2021/01/18 06:18:12;;;;;;;11.75;4.28;;;;;;;;;;4980137;28;20046;-60
2021/01/18 06:20:45;;;;;;;20.75;4.63;;;;;;;;;;4988676;28;20031;-60
2021/01/18 06:23:20;;;;;;;21.25;3.88;;;;;;;;;;4984370;28;20097;-60
2021/01/18 06:25:48;;;;;;;13.32;4.43;;;;;;;;;;4968319;28;20034;-60
2021/01/18 06:28:27;;;;;;;12.48;4.22;;;;;;;;;;4965187;28;20059;-60
2021/01/18 06:31:08;;;;;;;15.48;4.07;;;;;;;;;;4970038;28;20026;-60
2021/01/18 06:33:38;;;;;;;10.98;4.00;;;;;;;;;;4966828;28;20062;-60
2021/01/18 06:36:15;;;;;;;15.85;4.20;;;;;;;;;;4971519;28;20063;-60
2021/01/18 06:38:41;;;;;;;18.00;4.60;;;;;;;;;;4970047;28;20049;-60
2021/01/18 06:41:08;;;;;;;14.88;5.47;;;;;;;;;;4972033;28;20051;-60
2021/01/18 06:43:34;;;;;;;16.75;4.35;;;;;;;;;;4984391;28;20061;-61
2021/01/18 06:46:13;;;;;;;15.05;3.53;;;;;;;;;;4988607;28;20058;-61
2021/01/18 06:48:41;;;;;;;17.23;4.90;;;;;;;;;;4982173;28;20087;-60
2021/01/18 06:51:14;;;;;;;13.63;4.10;;;;;;;;;;4970622;28;20079;-60
2021/01/18 06:53:42;;;;;;;15.05;3.90;;;;;;;;;;4967103;28;20030;-61
2021/01/18 06:56:35;;;;;;;14.53;4.23;;;;;;;;;;4972291;28;20091;-60
2021/01/18 06:59:03;;;;;;;14.13;3.92;;;;;;;;;;4967625;28;20059;-61
2021/01/18 07:01:32;;;;;;;14.02;4.43;;;;;;;;;;4970516;28;20034;-61
2021/01/18 07:04:06;;;;;;;16.50;4.43;;;;;;;;;;4959439;28;20043;-60
2021/01/18 07:06:33;;;;;;;20.02;4.38;;;;;;;;;;4986000;28;20027;-62
2021/01/18 07:09:00;;;;;;;15.93;4.18;;;;;;;;;;5013296;28;20049;-61
2021/01/18 07:11:32;;;;;;;10.25;3.92;;;;;;;;;;5004356;28;20066;-61
2021/01/18 07:14:02;;;;;;;26.50;4.78;;;;;;;;;;4984078;28;20035;-62
2021/01/18 07:16:30;;;;;;;14.50;4.15;;;;;;;;;;4981426;28;20127;-61
2021/01/18 07:18:59;;;;;;;24.73;4.90;;;;;;;;;;4984659;28;20046;-61
2021/01/18 07:21:40;;;;;;;;;;;;;;;;;;4987180;28;20043;-62
2021/01/18 07:24:08;;;;;;;10.02;3.63;;;;;;;;;;4998919;28;19914;-60
2021/01/18 07:26:50;;;;;;;11.10;4.38;;;;;;;;;;4986500;28;20044;-62
2021/01/18 07:29:18;;;;;;;18.45;4.93;;;;;;;;;;4983064;28;20095;-61
2021/01/18 07:31:44;;;;;;;13.98;4.32;;;;;;;;;;4988861;28;20034;-60
2021/01/18 07:34:12;;;;;;;16.42;4.63;;;;;;;;;;4982588;28;20022;-60
2021/01/18 07:36:41;;;;;;;14.17;5.17;;;;;;;;;;5004224;28;20062;-60
2021/01/18 07:42:25;;;;;;;21.67;6.78;;;;;;;;;;4990114;28;20093;-61
2021/01/18 07:45:10;;;;;;;11.68;4.45;;;;;;;;;;5002803;28;20058;-61
2021/01/18 07:48:00;;;;;;;11.25;4.07;;;;;;;;;;4998296;28;20030;-61
2021/01/18 07:50:32;;;;;;;11.40;4.20;;;;;;;;;;4984753;28;20046;-61
2021/01/18 07:52:58;;;;;;;15.18;3.92;;;;;;;;;;4995819;28;20046;-61
2021/01/18 07:55:25;;;;;;;14.45;4.22;;;;;;;;;;4984280;28;20050;-61
2021/01/18 07:57:52;;;;;;;16.90;4.07;;;;;;;;;;5000719;28;20053;-61
2021/01/18 08:00:43;;;;;;;14.85;4.10;;;;;;;;;;5000058;28;20031;-62
2021/01/18 08:03:24;;;;;;;13.70;4.05;;;;;;;;;;4985429;28;20061;-62
2021/01/18 08:06:04;;;;;;;10.65;3.42;;;;;;;;;;4986453;28;20038;-62
2021/01/18 08:08:31;;;;;;;13.45;3.85;;;;;;;;;;4986838;28;20026;-62
2021/01/18 08:11:05;;;;;;;15.43;3.70;;;;;;;;;;4975818;28;20041;-62
2021/01/18 08:13:34;;;;;;;15.02;3.60;;;;;;;;;;4988534;28;20070;-62
2021/01/18 08:16:11;;;;;;;24.02;3.85;;;;;;;;;;4984983;28;20066;-61
2021/01/18 08:18:58;;;;;;;20.48;3.78;;;;;;;;;;5005445;28;20085;-62
2021/01/18 08:21:44;;;;;;;11.57;3.97;;;;;;;;;;4977516;28;20100;-61
2021/01/18 08:24:13;;;;;;;17.13;4.80;;;;;;;;;;4990010;28;20062;-61
2021/01/18 08:27:03;;;;;;;16.42;3.88;;;;;;;;;;4984852;28;20041;-60
2021/01/18 08:29:47;;;;;;;16.98;3.97;;;;;;;;;;4960064;28;20094;-60
2021/01/18 08:32:46;;;;;;;17.48;4.30;;;;;;;;;;4989188;28;20042;-61
2021/01/18 08:35:25;;;;;;;23.92;4.85;;;;;;;;;;4986182;28;20061;-61
2021/01/18 08:37:54;;;;;;;18.13;6.15;;;;;;;;;;4975039;28;20039;-62
2021/01/18 08:40:30;;;;;;;24.80;4.78;;;;;;;;;;4989539;28;20092;-61
2021/01/18 08:42:58;;;;;;;15.73;3.72;;;;;;;;;;4986494;28;20038;-62
2021/01/18 08:45:25;;;;;;;16.45;4.15;;;;;;;;;;4989187;28;20066;-61
2021/01/18 08:47:55;;;;;;;19.52;5.28;;;;;;;;;;4985208;28;20046;-62
2021/01/18 08:50:29;;;;;;;14.10;3.35;;;;;;;;;;4980273;28;20038;-61
2021/01/18 08:52:59;;;;;;;21.17;5.22;;;;;;;;;;4983543;28;20074;-61
2021/01/18 08:55:44;;;;;;;12.75;4.05;;;;;;;;;;5004508;28;20042;-61
2021/01/18 08:58:10;;;;;;;18.45;4.40;;;;;;;;;;4988981;28;20042;-61
2021/01/18 09:00:40;;;;;;;14.90;4.20;;;;;;;;;;5010537;28;20034;-62
2021/01/18 09:03:06;;;;;;;16.17;4.20;;;;;;;;;;5001877;28;20048;-61
2021/01/18 09:05:32;;;;;;;10.73;3.85;;;;;;;;;;4987608;28;20037;-61
2021/01/18 09:08:01;;;;;;;13.43;4.43;;;;;;;;;;4985216;28;20042;-61
2021/01/18 09:10:47;;;;;;;16.48;4.40;;;;;;;;;;5005294;28;20042;-61
2021/01/18 09:13:14;;;;;;;14.15;4.30;;;;;;;;;;4942672;28;20052;-61
2021/01/18 09:15:44;;;;;;;14.45;4.55;;;;;;;;;;4978178;28;20049;-61
2021/01/18 09:18:10;;;;;;;15.80;4.07;;;;;;;;;;4970305;28;20030;-61
2021/01/18 09:20:39;;;;;;;12.27;4.13;;;;;;;;;;5001994;28;20027;-61
2021/01/18 09:23:06;;;;;;;19.38;4.25;;;;;;;;;;4989299;28;20049;-61
2021/01/18 09:25:33;;;;;;;14.55;3.75;;;;;;;;;;5000290;28;20041;-61
2021/01/18 09:28:03;;;;;;;14.93;3.53;;;;;;;;;;5003787;28;20042;-61
2021/01/18 09:30:30;;;;;;;12.57;4.32;;;;;;;;;;4998256;28;20156;-61
2021/01/18 09:32:57;;;;;;;19.35;4.05;;;;;;;;;;4987636;28;20057;-62
2021/01/18 09:35:25;;;;;;;16.10;3.67;;;;;;;;;;4983055;28;20057;-62
2021/01/18 09:37:51;;;;;;;18.73;4.23;;;;;;;;;;4987168;28;20038;-61
2021/01/18 09:40:18;;;;;;;18.65;3.95;;;;;;;;;;4983438;28;20038;-61
2021/01/18 09:42:45;;;;;;;11.52;3.78;;;;;;;;;;5002911;28;20045;-61
2021/01/18 09:45:11;;;;;;;10.18;3.70;;;;;;;;;;4984201;28;20026;-61
2021/01/18 09:47:39;;;;;;;12.88;3.25;;;;;;;;;;5005349;28;20042;-61
2021/01/18 09:50:06;;;;;;;12.20;3.63;;;;;;;;;;4980438;28;20035;-61
2021/01/18 09:52:33;;;;;;;15.93;3.63;;;;;;;;;;4983602;28;21145;-61
2021/01/18 09:54:59;;;;;;;10.27;3.72;;;;;;;;;;4968554;28;20066;-61
2021/01/18 09:57:25;;;;;;;12.02;3.63;;;;;;;;;;5004858;28;20045;-62
2021/01/18 09:59:52;;;;;;;10.98;3.40;;;;;;;;;;4986987;28;20034;-62
2021/01/18 10:02:18;;;;;;;13.25;3.28;;;;;;;;;;4984708;28;20038;-61
2021/01/18 10:04:49;;;;;;;21.85;3.53;;;;;;;;;;4978670;28;20047;-61
2021/01/18 10:07:15;;;;;;;16.67;3.95;;;;;;;;;;4967275;28;20057;-61
2021/01/18 10:09:42;;;;;;;23.77;4.82;;;;;;;;;;4970284;28;20039;-61
2021/01/18 10:12:13;;;;;;;11.55;3.63;;;;;;;;;;4963148;28;20035;-62
2021/01/18 10:14:48;;;;;;;9.88;2.67;;;;;;;;;;4953131;28;20043;-61
2021/01/18 10:17:14;;;;;;;12.75;4.25;;;;;;;;;;4961053;28;20131;-61
2021/01/18 10:19:41;;;;;;;10.25;3.28;;;;;;;;;;4969914;28;20042;-61
2021/01/18 10:22:15;;;;;;;30.13;4.43;;;;;;;;;;4967039;28;20042;-62
2021/01/18 10:24:41;;;;;;;12.25;4.15;;;;;;;;;;4974932;28;20041;-62
2021/01/18 10:27:10;;;;;;;14.38;3.53;;;;;;;;;;4970183;28;20027;-61
2021/01/18 10:29:42;;;;;;;11.75;3.53;;;;;;;;;;4970471;28;20112;-60
2021/01/18 10:32:09;;;;;;;13.90;3.72;;;;;;;;;;4966682;28;20042;-61
2021/01/18 10:34:36;;;;;;;15.20;4.50;;;;;;;;;;4971948;28;20100;-61
2021/01/18 10:37:09;;;;;;;11.27;4.10;;;;;;;;;;4967929;28;20104;-61
2021/01/18 10:39:38;;;;;;;18.35;4.55;;;;;;;;;;4970615;28;20035;-61
2021/01/18 10:42:05;;;;;;;13.88;3.92;;;;;;;;;;4967299;28;20034;-61
2021/01/18 10:44:31;;;;;;;12.85;3.92;;;;;;;;;;4969965;28;20105;-61
2021/01/18 10:46:57;;;;;;;14.75;3.75;;;;;;;;;;4967817;28;20035;-61
2021/01/18 10:49:24;;;;;;;15.05;3.97;;;;;;;;;;4970823;28;20050;-61
2021/01/18 10:52:00;;;;;;;13.15;3.72;;;;;;;;;;4971540;28;20038;-61
2021/01/18 10:54:26;;;;;;;15.30;3.78;;;;;;;;;;4968334;28;20048;-61
2021/01/18 10:56:54;;;;;;;15.73;5.07;;;;;;;;;;4951819;28;20039;-61
2021/01/18 10:59:26;;;;;;;13.48;5.47;;;;;;;;;;4982887;28;20046;-61
2021/01/18 11:02:05;;;;;;;10.18;3.15;;;;;;;;;;4969804;28;20035;-62
2021/01/18 11:04:33;;;;;;;12.85;3.78;;;;;;;;;;4970438;28;20034;-61
2021/01/18 11:06:59;;;;;;;11.70;3.42;;;;;;;;;;4990122;28;20164;-61
2021/01/18 11:09:31;;;;;;;19.25;4.07;;;;;;;;;;4987292;28;20066;-61
2021/01/18 11:11:58;;;;;;;20.27;4.03;;;;;;;;;;4988956;28;20042;-62
2021/01/18 11:14:24;;;;;;;11.57;3.97;;;;;;;;;;4999216;28;20074;-61
2021/01/18 11:16:57;;;;;;;19.05;4.13;;;;;;;;;;4988174;28;20053;-61
2021/01/18 11:19:23;;;;;;;14.52;4.45;;;;;;;;;;4984841;28;20049;-61
2021/01/18 11:21:50;;;;;;;16.13;3.95;;;;;;;;;;5004968;28;20049;-61
2021/01/18 11:24:16;;;;;;;16.17;3.85;;;;;;;;;;5000319;28;20046;-61
2021/01/18 11:26:42;;;;;;;12.55;4.22;;;;;;;;;;4990606;28;20119;-61
2021/01/18 11:29:09;;;;;;;19.73;5.63;;;;;;;;;;5001437;28;20046;-61
2021/01/18 11:31:35;;;;;;;19.27;3.65;;;;;;;;;;5006497;28;20074;-62
2021/01/18 11:34:01;;;;;;;15.82;3.72;;;;;;;;;;5002447;28;20034;-61
2021/01/18 11:36:27;;;;;;;12.20;4.13;;;;;;;;;;5004869;28;20046;-61
2021/01/18 11:38:53;;;;;;;18.30;4.53;;;;;;;;;;5001908;28;20062;-61
2021/01/18 11:41:19;;;;;;;14.40;4.20;;;;;;;;;;5004605;28;20132;-62
2021/01/18 11:43:45;;;;;;;14.82;3.80;;;;;;;;;;4997310;28;20038;-62
2021/01/18 11:46:16;;;;;;;20.27;4.95;;;;;;;;;;4985968;28;20034;-62
2021/01/18 11:48:42;;;;;;;17.60;5.95;;;;;;;;;;4989278;28;20062;-61
2021/01/18 11:51:15;;;;;;;14.57;5.07;;;;;;;;;;4991626;28;20132;-62
2021/01/18 11:53:41;;;;;;;20.65;3.72;;;;;;;;;;5009589;28;20030;-61
2021/01/18 11:56:08;;;;;;;10.20;3.35;;;;;;;;;;4986389;28;20120;-61
2021/01/18 11:58:34;;;;;;;12.18;3.58;;;;;;;;;;4990659;28;20052;-61
2021/01/18 12:01:13;;;;;;;11.40;3.20;;;;;;;;;;4985201;28;20046;-61
2021/01/18 12:03:40;;;;;;;15.93;3.70;;;;;;;;;;5007205;28;20038;-61
2021/01/18 12:06:06;;;;;;;12.60;3.10;;;;;;;;;;4984850;28;20027;-61
2021/01/18 12:08:32;;;;;;;12.02;3.05;;;;;;;;;;5006284;28;20037;-61
2021/01/18 12:10:58;;;;;;;17.42;3.25;;;;;;;;;;5002987;28;20041;-62
2021/01/18 12:13:24;;;;;;;14.40;2.70;;;;;;;;;;4990253;28;20081;-61
2021/01/18 12:15:50;;;;;;;9.75;2.70;;;;;;;;;;4979123;28;20022;-61
2021/01/18 12:18:16;;;;;;;16.60;2.80;;;;;;;;;;4989028;28;20030;-61
2021/01/18 12:20:45;;;;;;;13.50;2.85;;;;;;;;;;4986871;28;20061;-61
2021/01/18 12:23:11;;;;;;;13.30;3.15;;;;;;;;;;4990229;28;20049;-61
2021/01/18 12:25:40;;;;;;;8.50;3.25;;;;;;;;;;4988259;28;20030;-61
2021/01/18 12:28:08;;;;;;;10.00;2.50;;;;;;;;;;4985656;28;20031;-61
2021/01/18 12:30:35;;;;;;;16.60;2.93;;;;;;;;;;4969381;28;20050;-61
2021/01/18 12:33:01;;;;;;;11.15;2.53;;;;;;;;;;5002465;28;20042;-61
2021/01/18 12:35:27;;;;;;;13.68;2.95;;;;;;;;;;5005440;28;20034;-61
2021/01/18 12:37:54;;;;;;;15.93;2.97;;;;;;;;;;4985886;28;20118;-61
2021/01/18 12:40:26;;;;;;;23.77;4.45;;;;;;;;;;4989313;28;20038;-61
2021/01/18 12:42:53;;;;;;;14.45;4.13;;;;;;;;;;5002096;28;20050;-61
2021/01/18 12:45:19;;;;;;;13.73;4.78;;;;;;;;;;4990621;28;20042;-61
2021/01/18 12:47:45;;;;;;;23.65;5.13;;;;;;;;;;5002085;28;20062;-61
2021/01/18 12:50:13;;;;;;;14.13;5.00;;;;;;;;;;5004800;28;20048;-61
2021/01/18 12:52:42;;;;;;;23.45;5.70;;;;;;;;;;5003272;28;20042;-61
2021/01/18 12:55:09;;;;;;;19.98;5.75;;;;;;;;;;4988122;28;20058;-61
2021/01/18 12:57:35;;;;;;;22.35;6.32;;;;;;;;;;4982228;28;20113;-61
2021/01/18 13:00:03;;;;;;;19.40;4.18;;;;;;;;;;4969357;28;20059;-61
2021/01/18 13:02:29;;;;;;;17.52;4.13;;;;;;;;;;4970644;28;20040;-61
2021/01/18 13:04:55;;;;;;;10.35;3.17;;;;;;;;;;5005702;28;20038;-61
2021/01/18 13:07:21;;;;;;;13.50;3.13;;;;;;;;;;4985525;28;20038;-61
2021/01/18 13:09:47;;;;;;;16.10;4.60;;;;;;;;;;5007147;28;20102;-61
2021/01/18 13:12:15;;;;;;;12.88;3.40;;;;;;;;;;4988799;28;20071;-61
2021/01/18 13:14:40;;;;;;;9.93;2.88;;;;;;;;;;5002375;28;20038;-62
2021/01/18 13:17:06;;;;;;;22.83;5.28;;;;;;;;;;4992772;28;20045;-61
2021/01/18 13:19:34;;;;;;;12.07;2.90;;;;;;;;;;4991073;28;20054;-61
2021/01/18 13:22:00;;;;;;;21.00;4.50;;;;;;;;;;4989609;28;20098;-61
2021/01/18 13:24:26;;;;;;;21.85;5.97;;;;;;;;;;4984684;28;20070;-61
2021/01/18 13:26:52;;;;;;;26.92;5.72;;;;;;;;;;4988636;28;20041;-61
2021/01/18 13:29:41;;;;;;;17.02;4.78;;;;;;;;;;4985515;28;20034;-61
2021/01/18 13:32:08;;;;;;;14.90;3.03;;;;;;;;;;4988648;28;20038;-61
2021/01/18 13:34:34;;;;;;;13.82;2.78;;;;;;;;;;4998850;28;20062;-61
2021/01/18 13:37:00;;;;;;;10.73;2.85;;;;;;;;;;4987902;28;20104;-61
2021/01/18 13:39:32;;;;;;;14.05;2.75;;;;;;;;;;4983709;28;20034;-61
2021/01/18 13:41:58;;;;;;;11.25;2.92;;;;;;;;;;4987028;28;20108;-61
2021/01/18 13:44:24;;;;;;;28.85;3.50;;;;;;;;;;4999954;28;20034;-61
2021/01/18 13:46:50;;;;;;;12.55;3.70;;;;;;;;;;5005734;28;20065;-61
2021/01/18 13:49:25;;;;;;;17.05;4.85;;;;;;;;;;4986185;28;20050;-61
2021/01/18 13:51:51;;;;;;;22.98;5.90;;;;;;;;;;4988608;28;20034;-61
2021/01/18 13:54:17;;;;;;;18.67;5.20;;;;;;;;;;4986451;28;20413;-62
2021/01/18 13:56:43;;;;;;;20.67;4.20;;;;;;;;;;4988808;28;20092;-61
2021/01/18 13:59:09;;;;;;;15.60;4.60;;;;;;;;;;4987604;28;20041;-61
2021/01/18 14:01:36;;;;;;;24.45;5.05;;;;;;;;;;5003776;28;20115;-61
2021/01/18 14:04:02;;;;;;;20.90;5.57;;;;;;;;;;4988752;28;20038;-61
2021/01/18 14:06:30;;;;;;;15.40;5.90;;;;;;;;;;4983176;28;20045;-62
2021/01/18 14:08:57;;;;;;;16.50;4.43;;;;;;;;;;4987954;28;20102;-61
2021/01/18 14:11:35;;;;;;;16.40;4.63;;;;;;;;;;4984561;28;20066;-61
2021/01/18 14:14:02;;;;;;;21.90;4.70;;;;;;;;;;4989130;28;20030;-61
2021/01/18 14:16:28;;;;;;;17.73;4.43;;;;;;;;;;4984763;28;20038;-61
2021/01/18 14:18:54;;;;;;;19.73;4.68;;;;;;;;;;4988606;28;20141;-61
2021/01/18 14:21:37;;;;;;;18.30;5.10;;;;;;;;;;4984907;28;20030;-61
2021/01/18 14:24:04;;;;;;;22.55;5.40;;;;;;;;;;4987027;28;20038;-61
2021/01/18 14:26:32;;;;;;;26.13;4.85;;;;;;;;;;5000762;28;20058;-61
2021/01/18 14:28:58;;;;;;;20.27;5.00;;;;;;;;;;5004193;28;20034;-61
2021/01/18 14:31:26;;;;;;;22.75;5.43;;;;;;;;;;5001241;28;20049;-61
2021/01/18 14:33:52;;;;;;;17.27;5.38;;;;;;;;;;4987856;28;20030;-61
2021/01/18 14:36:19;;;;;;;17.33;4.95;;;;;;;;;;4985220;28;20041;-61
2021/01/18 14:38:46;;;;;;;12.75;3.92;;;;;;;;;;4987068;28;20046;-61
2021/01/18 14:41:19;;;;;;;18.02;3.47;;;;;;;;;;4982884;28;20038;-61
2021/01/18 14:43:46;;;;;;;14.75;2.20;;;;;;;;;;4988363;28;20043;-61
2021/01/18 14:46:12;;;;;;;17.83;2.42;;;;;;;;;;5005789;28;20030;-61
2021/01/18 14:48:38;;;;;;;7.07;1.73;;;;;;;;;;4990861;28;20126;-62
2021/01/18 14:51:08;;;;;;;16.25;3.53;;;;;;;;;;4987642;28;20046;-61
2021/01/18 14:53:34;;;;;;;17.00;2.60;;;;;;;;;;5003610;28;20082;-62